Time;durP1;ratioP1;P1;durP2;ratioP2;P2;SDS_P1;SDS_P2;PMS_P1;PMS_P2;Temp;Humidity;BMP_temperature;BMP_pressure;BME280_temperature;BME280_humidity;BME280_pressure;Samples;Min_cycle;Max_cycle;Signal;HPM_P1;HPM_P2
2023/04/04 00:01:57;;;;;;;20.15;7.65;;;;;;;9.42;97.61;93628.25;4998340;28;20279;-67
2023/04/04 00:04:24;;;;;;;20.73;7.53;;;;;;;9.57;97.25;93632.53;4996574;28;20706;-65
2023/04/04 00:06:51;;;;;;;29.63;10.00;;;;;;;9.58;97.60;93628.28;4996877;28;20204;-66
2023/04/04 00:09:18;;;;;;;42.53;12.93;;;;;;;9.62;97.31;93634.84;4997059;28;20214;-66
2023/04/04 00:11:46;;;;;;;34.65;11.23;;;;;;;9.63;96.76;93623.78;4994156;28;20219;-67
2023/04/04 00:14:13;;;;;;;31.20;9.77;;;;;;;9.67;96.64;93633.66;4993169;28;20706;-68
2023/04/04 00:16:40;;;;;;;41.63;12.73;;;;;;;9.69;96.50;93631.06;4997396;28;20295;-68
2023/04/04 00:19:07;;;;;;;22.83;7.55;;;;;;;9.65;95.96;93638.00;4996202;28;20687;-67
2023/04/04 00:21:34;;;;;;;21.75;8.13;;;;;;;9.63;96.56;93641.53;5002909;28;20224;-68
2023/04/04 00:24:01;;;;;;;21.92;7.97;;;;;;;9.46;96.69;93632.25;4998474;28;20212;-67
2023/04/04 00:26:28;;;;;;;22.63;7.88;;;;;;;9.37;97.61;93625.97;4996906;28;20351;-66
2023/04/04 00:28:56;;;;;;;15.55;6.45;;;;;;;9.31;97.77;93620.38;4996127;28;20271;-68
2023/04/04 00:31:22;;;;;;;12.50;5.10;;;;;;;9.27;96.72;93617.19;4996690;28;20710;-66
2023/04/04 00:33:49;;;;;;;11.80;4.90;;;;;;;9.23;97.05;93610.63;4993805;28;20243;-67
2023/04/04 00:36:16;;;;;;;10.02;5.20;;;;;;;9.23;97.42;93604.75;4996022;28;20346;-67
2023/04/04 00:38:43;;;;;;;9.02;4.65;;;;;;;9.25;96.85;93601.25;4994884;28;20622;-64
2023/04/04 00:41:09;;;;;;;7.60;4.32;;;;;;;9.24;97.26;93592.00;4998544;28;20212;-67
2023/04/04 00:43:36;;;;;;;7.70;3.67;;;;;;;9.20;96.95;93593.88;4995992;28;20817;-67
2023/04/04 00:46:05;;;;;;;6.25;3.92;;;;;;;9.30;97.05;93589.16;4995427;28;20209;-67
2023/04/04 00:48:32;;;;;;;7.45;3.33;;;;;;;9.35;96.51;93594.81;4995814;28;20212;-66
2023/04/04 00:50:59;;;;;;;6.22;4.28;;;;;;;9.35;96.48;93588.91;4996563;28;20299;-66
2023/04/04 00:53:25;;;;;;;10.90;4.80;;;;;;;9.49;96.06;93583.94;4996238;28;20323;-66
2023/04/04 00:55:52;;;;;;;7.68;4.47;;;;;;;9.65;95.46;93589.81;4997121;28;20220;-66
2023/04/04 00:58:19;;;;;;;11.77;5.97;;;;;;;9.46;95.70;93579.84;4996830;28;20291;-67
2023/04/04 01:00:46;;;;;;;12.70;4.97;;;;;;;9.46;96.01;93584.91;4996749;28;20355;-67
2023/04/04 01:03:14;;;;;;;14.80;5.00;;;;;;;9.55;95.82;93586.97;4996834;28;20335;-67
2023/04/04 01:05:41;;;;;;;5.45;4.93;;;;;;;9.63;95.63;93590.81;4997394;28;20350;-67
2023/04/04 01:08:08;;;;;;;12.10;5.82;;;;;;;9.70;95.33;93592.94;4998873;28;20200;-66
2023/04/04 01:10:35;;;;;;;12.88;6.53;;;;;;;9.67;95.37;93597.34;5001945;28;20275;-66
2023/04/04 01:13:01;;;;;;;14.02;6.85;;;;;;;9.76;95.46;93604.47;5000242;28;20269;-66
2023/04/04 01:15:29;;;;;;;17.15;7.25;;;;;;;9.88;94.81;93601.28;5000208;28;20996;-66
2023/04/04 01:18:01;;;;;;;11.82;6.72;;;;;;;9.79;95.28;93609.38;4999367;28;20603;-66
2023/04/04 01:20:33;;;;;;;11.57;6.80;;;;;;;9.74;95.27;93611.34;5000305;28;20235;-66
2023/04/04 01:23:02;;;;;;;14.00;6.22;;;;;;;9.80;95.92;93614.38;5000146;28;20266;-67
2023/04/04 01:25:31;;;;;;;14.27;6.65;;;;;;;9.71;95.85;93614.03;5000078;28;20235;-66
2023/04/04 01:27:59;;;;;;;10.02;5.43;;;;;;;9.72;96.08;93615.69;5000871;28;20228;-66
2023/04/04 01:30:31;;;;;;;7.40;5.22;;;;;;;9.79;95.15;93611.91;5000679;28;20639;-67
2023/04/04 01:33:03;;;;;;;5.05;4.55;;;;;;;9.74;95.68;93611.34;5001033;28;20724;-66
2023/04/04 01:35:43;;;;;;;4.15;3.95;;;;;;;9.74;94.64;93608.81;4998157;28;20278;-66
2023/04/04 01:38:18;;;;;;;3.55;3.35;;;;;;;9.68;95.02;93609.13;5000140;28;20231;-67
2023/04/04 01:40:49;;;;;;;3.72;3.42;;;;;;;9.69;95.13;93605.69;4999448;28;20298;-67
2023/04/04 01:43:16;;;;;;;6.57;6.05;;;;;;;9.65;95.36;93601.72;5001331;28;20287;-66
2023/04/04 01:45:43;;;;;;;5.85;5.45;;;;;;;9.50;94.88;93594.00;5000176;28;20415;-67
2023/04/04 01:48:10;;;;;;;6.30;5.90;;;;;;;9.47;95.53;93588.25;5000082;28;20297;-65
2023/04/04 01:50:37;;;;;;;5.10;4.80;;;;;;;9.38;95.76;93576.09;5000396;28;20291;-66
2023/04/04 01:53:04;;;;;;;3.33;3.13;;;;;;;9.35;95.72;93577.06;5000428;28;20228;-68
2023/04/04 01:55:31;;;;;;;3.20;3.00;;;;;;;9.41;95.09;93571.66;5000069;28;20203;-68
2023/04/04 01:57:59;;;;;;;3.17;2.97;;;;;;;9.45;94.76;93564.69;4999079;28;20212;-67
2023/04/04 02:00:26;;;;;;;2.28;1.90;;;;;;;9.31;93.65;93557.84;4999571;28;20542;-67
2023/04/04 02:02:53;;;;;;;1.98;1.88;;;;;;;9.27;93.10;93553.81;4999812;28;20727;-67
2023/04/04 02:05:20;;;;;;;1.75;1.65;;;;;;;9.18;93.13;93555.09;5000647;28;20235;-67
2023/04/04 02:07:50;;;;;;;2.00;1.90;;;;;;;9.11;94.13;93558.06;4999397;28;20644;-66
2023/04/04 02:10:17;;;;;;;2.30;2.20;;;;;;;9.14;94.34;93555.38;5000104;28;20906;-66
2023/04/04 02:12:44;;;;;;;2.60;2.50;;;;;;;9.11;94.97;93568.19;4999755;28;20327;-67
2023/04/04 02:15:12;;;;;;;2.72;2.53;;;;;;;9.09;95.44;93555.59;4999895;28;20208;-66
2023/04/04 02:17:39;;;;;;;2.63;2.53;;;;;;;9.24;95.55;93564.13;4999641;28;20678;-66
2023/04/04 02:20:09;;;;;;;2.80;2.60;;;;;;;9.13;95.99;93556.28;4998910;28;20654;-67
2023/04/04 02:22:36;;;;;;;2.83;2.72;;;;;;;9.26;95.53;93552.19;4998946;28;20210;-66
2023/04/04 02:25:03;;;;;;;2.40;2.30;;;;;;;9.16;94.47;93545.94;4999757;28;20325;-68
2023/04/04 02:27:29;;;;;;;2.40;2.30;;;;;;;9.02;94.50;93554.28;4999351;28;20231;-66
2023/04/04 02:36:39;;;;;;;3.00;2.63;;;;;;;9.88;90.15;93558.16;5048257;27;20572;-66
2023/04/04 02:39:06;;;;;;;2.70;2.50;;;;;;;10.24;87.75;93552.78;5058538;28;20203;-66
2023/04/04 02:41:32;;;;;;;2.42;2.22;;;;;;;10.30;87.54;93554.16;5031949;28;20334;-67
2023/04/04 02:43:59;;;;;;;4.30;2.53;;;;;;;9.99;88.15;93555.84;5047946;28;20672;-67
2023/04/04 02:46:26;;;;;;;2.65;2.45;;;;;;;10.15;88.82;93569.28;5042476;28;20677;-66
2023/04/04 02:48:52;;;;;;;2.17;1.98;;;;;;;10.20;87.68;93562.28;5044183;28;20288;-66
2023/04/04 02:51:19;;;;;;;2.50;2.40;;;;;;;10.12;88.68;93559.34;5041050;28;20199;-66
2023/04/04 02:53:47;;;;;;;3.60;2.67;;;;;;;10.04;89.12;93568.28;5043561;28;20677;-66
2023/04/04 02:56:14;;;;;;;2.03;1.92;;;;;;;10.14;87.90;93567.69;5046656;28;20242;-67
2023/04/04 02:58:40;;;;;;;2.00;1.90;;;;;;;10.01;88.66;93568.44;5046065;28;20226;-67
2023/04/04 03:01:07;;;;;;;1.85;1.75;;;;;;;10.06;87.56;93564.75;5046402;28;20296;-66
2023/04/04 03:03:34;;;;;;;1.45;1.45;;;;;;;10.39;86.98;93576.50;5047345;28;20234;-67
2023/04/04 03:06:01;;;;;;;1.75;1.65;;;;;;;10.25;87.01;93573.91;5047579;28;20230;-66
2023/04/04 03:08:28;;;;;;;1.65;1.50;;;;;;;10.20;87.36;93571.63;5047421;28;20685;-67
2023/04/04 03:10:56;;;;;;;1.60;1.50;;;;;;;10.35;87.19;93569.97;5042695;28;20196;-68
2023/04/04 03:13:23;;;;;;;1.80;1.70;;;;;;;10.69;86.77;93579.81;5041154;28;20616;-67
2023/04/04 03:15:50;;;;;;;1.40;1.40;;;;;;;10.40;87.48;93588.25;5046633;28;20604;-67
2023/04/04 03:18:16;;;;;;;1.60;1.50;;;;;;;10.31;87.80;93587.09;5045075;28;20199;-67
2023/04/04 03:20:43;;;;;;;2.33;1.50;;;;;;;10.82;86.69;93585.03;5041514;28;20254;-67
2023/04/04 03:23:10;;;;;;;1.95;1.85;;;;;;;10.87;86.15;93583.84;5040562;28;20247;-67
2023/04/04 03:25:36;;;;;;;2.10;2.00;;;;;;;11.13;85.77;93573.88;5046713;28;20636;-67
2023/04/04 03:28:14;;;;;;;2.10;2.00;;;;;;;11.45;84.18;93574.47;5034954;28;20724;-69
2023/04/04 03:30:40;;;;;;;3.50;3.20;;;;;;;11.24;84.94;93576.59;5046835;28;20264;-67
2023/04/04 03:33:08;;;;;;;3.83;3.53;;;;;;;11.11;85.84;93575.69;5046458;28;20304;-67
2023/04/04 03:35:38;;;;;;;3.53;3.33;;;;;;;11.12;85.72;93573.06;5045616;28;20262;-67
2023/04/04 03:38:04;;;;;;;4.15;3.92;;;;;;;11.01;85.75;93575.41;5047006;28;20233;-67
2023/04/04 03:40:31;;;;;;;3.20;2.90;;;;;;;10.82;86.18;93572.31;5046569;28;20203;-67
2023/04/04 03:42:58;;;;;;;3.75;3.55;;;;;;;10.61;87.46;93587.06;5037700;28;20231;-67
2023/04/04 03:45:26;;;;;;;4.28;3.80;;;;;;;10.83;87.28;93569.69;5057319;28;20195;-67
2023/04/04 03:47:53;;;;;;;2.97;2.78;;;;;;;10.88;86.93;93582.13;5033078;28;20207;-66
2023/04/04 03:50:19;;;;;;;4.00;3.70;;;;;;;11.05;86.69;93576.88;5033411;28;20273;-67
2023/04/04 03:52:47;;;;;;;3.88;3.67;;;;;;;11.27;85.82;93578.94;5023014;28;20200;-66
2023/04/04 03:55:14;;;;;;;3.70;3.40;;;;;;;11.30;85.67;93578.78;5032787;28;20709;-66
2023/04/04 03:57:40;;;;;;;4.05;3.75;;;;;;;11.39;85.16;93580.75;5024402;28;20249;-66
2023/04/04 04:00:08;;;;;;;3.80;3.47;;;;;;;11.39;85.33;93579.94;5033014;28;20643;-66
2023/04/04 04:02:36;;;;;;;3.70;3.40;;;;;;;11.37;85.35;93581.78;5026168;28;20208;-66
2023/04/04 04:05:03;;;;;;;4.95;4.53;;;;;;;11.25;85.87;93576.50;5032689;28;20231;-66
2023/04/04 04:07:29;;;;;;;4.30;4.00;;;;;;;11.22;86.31;93581.75;5028302;28;20235;-67
2023/04/04 04:09:56;;;;;;;5.75;5.35;;;;;;;11.15;86.53;93580.47;5031774;28;20685;-67
2023/04/04 04:12:25;;;;;;;4.63;4.30;;;;;;;11.10;87.34;93581.69;5031929;28;20336;-66
2023/04/04 04:14:51;;;;;;;5.38;4.88;;;;;;;11.05;87.41;93581.13;5032878;28;20265;-67
2023/04/04 04:17:18;;;;;;;5.47;4.80;;;;;;;11.21;87.08;93576.75;5030571;28;20203;-67
2023/04/04 04:19:46;;;;;;;5.28;4.85;;;;;;;11.19;87.29;93584.47;5032764;28;20303;-67
2023/04/04 04:22:13;;;;;;;5.25;4.82;;;;;;;11.29;86.96;93584.75;5029651;28;20204;-66
2023/04/04 04:24:40;;;;;;;6.28;5.78;;;;;;;11.37;86.44;93582.59;5032723;28;20242;-67
2023/04/04 04:27:06;;;;;;;6.55;6.05;;;;;;;11.37;86.29;93587.69;5031901;28;20258;-66
2023/04/04 04:29:33;;;;;;;7.60;6.80;;;;;;;11.32;86.15;93591.41;5032481;28;20208;-67
2023/04/04 04:32:00;;;;;;;6.63;6.03;;;;;;;11.15;86.66;93587.28;5024123;28;20235;-67
2023/04/04 04:34:27;;;;;;;8.00;6.53;;;;;;;11.21;86.98;93602.19;5031732;28;20237;-66
2023/04/04 04:36:55;;;;;;;8.32;7.55;;;;;;;11.25;87.09;93612.09;5027334;28;20230;-66
2023/04/04 04:39:22;;;;;;;17.35;12.90;;;;;;;10.96;87.82;93607.06;5032180;28;20287;-67
2023/04/04 04:41:49;;;;;;;12.25;11.00;;;;;;;11.00;88.21;93609.34;5030133;28;20262;-66
2023/04/04 04:44:15;;;;;;;12.52;10.45;;;;;;;11.11;88.30;93609.56;5044230;28;20626;-67
2023/04/04 04:46:42;;;;;;;9.70;8.73;;;;;;;11.21;87.49;93614.91;5031184;28;20704;-67
2023/04/04 04:49:09;;;;;;;9.50;8.68;;;;;;;11.23;87.39;93620.72;5032284;28;20297;-67
2023/04/04 04:51:36;;;;;;;9.20;8.40;;;;;;;11.05;87.26;93627.72;5026858;28;20239;-67
2023/04/04 04:54:04;;;;;;;9.18;8.23;;;;;;;11.16;87.40;93629.59;5032215;28;20669;-67
2023/04/04 04:56:30;;;;;;;9.38;8.45;;;;;;;11.34;87.64;93623.47;5031135;28;20731;-66
2023/04/04 04:58:57;;;;;;;10.75;9.65;;;;;;;11.39;87.25;93626.53;5030649;28;20215;-67
2023/04/04 05:01:24;;;;;;;11.40;10.25;;;;;;;11.52;86.67;93632.53;5029515;28;20257;-66
2023/04/04 05:03:51;;;;;;;13.98;11.77;;;;;;;11.52;86.51;93636.81;5031689;28;20239;-69
2023/04/04 05:06:17;;;;;;;16.70;14.52;;;;;;;11.57;85.64;93639.91;5031662;28;20196;-66
2023/04/04 05:08:44;;;;;;;16.27;14.63;;;;;;;11.71;85.21;93639.06;5031570;28;20207;-67
2023/04/04 05:11:12;;;;;;;14.75;12.05;;;;;;;11.86;84.96;93641.53;5025304;28;20339;-67
2023/04/04 05:13:40;;;;;;;14.55;12.15;;;;;;;12.04;84.29;93639.56;5023832;28;20222;-67
2023/04/04 05:16:07;;;;;;;12.85;11.15;;;;;;;12.27;84.22;93644.06;5021767;28;20315;-66
2023/04/04 05:18:33;;;;;;;11.02;10.02;;;;;;;12.30;83.07;93647.31;5031186;28;20204;-67
2023/04/04 05:21:00;;;;;;;10.45;9.52;;;;;;;12.42;82.22;93656.72;5023839;28;20697;-67
2023/04/04 05:23:27;;;;;;;10.73;9.60;;;;;;;12.45;81.91;93654.00;5026734;28;20227;-67
2023/04/04 05:25:53;;;;;;;11.60;10.45;;;;;;;12.43;82.05;93650.72;5024697;28;20308;-68
2023/04/04 05:28:22;;;;;;;12.23;11.02;;;;;;;12.42;82.26;93656.72;5030639;28;20224;-67
2023/04/04 05:30:49;;;;;;;15.32;13.32;;;;;;;12.74;81.47;93659.78;5031255;28;20253;-68
2023/04/04 05:33:15;;;;;;;42.38;29.00;;;;;;;13.22;81.40;93655.81;5030691;28;20902;-67
2023/04/04 05:35:42;;;;;;;19.88;15.38;;;;;;;14.05;78.91;93656.13;5030773;28;20267;-66
2023/04/04 05:38:09;;;;;;;13.13;11.82;;;;;;;14.98;76.78;93658.81;5031190;28;20230;-67
2023/04/04 05:40:36;;;;;;;10.25;9.27;;;;;;;16.48;72.68;93657.72;5025605;28;20243;-67
2023/04/04 05:43:03;;;;;;;9.98;9.18;;;;;;;18.64;65.09;93650.00;5030125;28;20806;-67
2023/04/04 05:45:31;;;;;;;8.82;8.10;;;;;;;19.54;60.64;93653.13;5028581;28;20200;-68
2023/04/04 05:47:58;;;;;;;8.80;7.95;;;;;;;20.14;57.34;93653.56;5030882;28;20645;-68
2023/04/04 05:50:25;;;;;;;9.07;8.43;;;;;;;20.52;55.20;93649.19;5023127;28;20685;-68
2023/04/04 05:52:53;;;;;;;8.02;7.47;;;;;;;21.13;53.70;93651.84;5021392;28;20615;-68
2023/04/04 05:55:20;;;;;;;8.90;8.20;;;;;;;20.88;53.64;93655.19;5022095;28;20231;-66
2023/04/04 05:57:48;;;;;;;11.27;10.27;;;;;;;20.01;55.53;93645.34;5030149;28;20686;-68
2023/04/04 06:00:16;;;;;;;10.13;9.38;;;;;;;19.17;57.16;93657.31;5028420;28;20206;-68
2023/04/04 06:02:44;;;;;;;9.40;8.70;;;;;;;18.12;59.61;93659.59;5029990;28;20196;-67
2023/04/04 06:05:11;;;;;;;8.18;7.50;;;;;;;17.19;61.31;93659.66;5030720;28;20199;-68
2023/04/04 06:07:38;;;;;;;8.77;8.18;;;;;;;16.52;63.59;93662.47;5030391;28;20257;-67
2023/04/04 06:10:06;;;;;;;7.95;7.25;;;;;;;16.20;65.64;93659.88;5030677;28;20210;-68
2023/04/04 06:12:33;;;;;;;7.68;7.15;;;;;;;16.11;66.39;93672.56;5030545;28;20212;-68
2023/04/04 06:14:59;;;;;;;8.27;7.60;;;;;;;16.20;66.26;93670.13;5030395;28;20204;-68
2023/04/04 06:17:26;;;;;;;8.88;8.20;;;;;;;16.20;66.46;93670.13;5030550;28;20267;-69
2023/04/04 06:19:54;;;;;;;8.10;7.60;;;;;;;16.07;66.72;93674.56;5026546;28;20705;-69
2023/04/04 06:22:21;;;;;;;11.80;10.63;;;;;;;15.69;68.16;93686.91;5030125;28;20227;-66
2023/04/04 06:24:48;;;;;;;6.15;5.70;;;;;;;15.11;67.87;93686.88;5030665;28;20200;-67
2023/04/04 06:27:14;;;;;;;4.10;3.80;;;;;;;14.46;67.64;93691.59;5029680;28;20219;-68
2023/04/04 06:29:41;;;;;;;4.05;3.55;;;;;;;13.41;68.42;93697.03;5027726;28;20290;-67
2023/04/04 06:32:08;;;;;;;2.30;2.20;;;;;;;12.87;70.36;93707.31;5030338;28;20238;-67
2023/04/04 06:34:35;;;;;;;1.50;1.50;;;;;;;12.29;70.73;93720.38;5029822;28;20235;-67
2023/04/04 06:37:03;;;;;;;1.38;1.08;;;;;;;12.25;71.08;93724.00;5030475;28;20251;-68
2023/04/04 06:39:30;;;;;;;1.13;1.13;;;;;;;12.01;69.57;93730.59;5028422;28;20199;-67
2023/04/04 06:41:57;;;;;;;1.05;1.05;;;;;;;11.77;70.75;93741.34;5030504;28;20290;-67
2023/04/04 06:44:24;;;;;;;0.93;0.93;;;;;;;11.71;70.60;93741.66;5042848;28;20280;-68
2023/04/04 06:46:51;;;;;;;0.93;0.93;;;;;;;11.65;69.11;93742.00;5030414;28;20254;-68
2023/04/04 06:49:18;;;;;;;1.83;1.00;;;;;;;11.55;69.44;93749.38;5027335;28;20297;-68
2023/04/04 06:51:45;;;;;;;1.40;1.30;;;;;;;11.62;69.32;93759.22;5028929;28;20203;-68
2023/04/04 06:54:13;;;;;;;1.63;1.52;;;;;;;11.35;70.02;93757.34;5024577;28;20213;-69
2023/04/04 06:56:40;;;;;;;1.73;1.63;;;;;;;11.30;68.74;93751.69;5028582;28;20255;-68
2023/04/04 06:59:10;;;;;;;0.88;0.88;;;;;;;11.05;69.10;93748.91;5029178;28;20765;-67
2023/04/04 07:01:36;;;;;;;5.10;0.65;;;;;;;10.79;69.35;93766.41;5030275;28;20200;-69
2023/04/04 07:04:03;;;;;;;0.75;0.75;;;;;;;10.48;70.82;93776.59;5029400;28;20200;-69
2023/04/04 07:06:30;;;;;;;1.33;1.27;;;;;;;10.15;71.25;93789.31;5029847;28;20273;-67
2023/04/04 07:08:56;;;;;;;2.75;1.45;;;;;;;10.26;70.65;93793.88;5026428;28;20196;-67
2023/04/04 07:11:25;;;;;;;1.77;1.67;;;;;;;10.02;70.48;93806.91;5029875;28;20227;-67
2023/04/04 07:13:52;;;;;;;3.10;2.25;;;;;;;10.02;69.54;93814.53;5029522;28;20207;-68
2023/04/04 07:16:19;;;;;;;1.50;1.40;;;;;;;9.76;69.70;93815.03;5029531;28;20262;-68
2023/04/04 07:18:46;;;;;;;1.27;1.13;;;;;;;9.55;69.50;93812.66;5027330;28;20199;-68
2023/04/04 07:21:12;;;;;;;1.17;1.17;;;;;;;9.36;70.21;93817.00;5023326;28;20239;-67
2023/04/04 07:23:39;;;;;;;1.65;1.55;;;;;;;9.13;70.28;93830.78;5027480;28;20712;-68
2023/04/04 07:26:06;;;;;;;1.98;1.38;;;;;;;9.24;70.63;93845.47;5033864;28;20255;-69
2023/04/04 07:28:34;;;;;;;1.73;1.63;;;;;;;9.10;70.71;93842.78;5032753;28;20203;-68
2023/04/04 07:31:02;;;;;;;1.25;1.15;;;;;;;9.06;71.25;93849.69;5033061;28;20256;-68
2023/04/04 07:33:29;;;;;;;2.47;0.90;;;;;;;9.05;71.63;93862.44;5032007;28;20282;-68
2023/04/04 07:35:55;;;;;;;0.68;0.68;;;;;;;9.00;71.16;93869.44;5033169;28;20270;-68
2023/04/04 07:38:22;;;;;;;4.60;1.08;;;;;;;9.04;71.11;93865.88;5031628;28;20208;-69
2023/04/04 07:40:49;;;;;;;1.20;1.02;;;;;;;9.08;70.43;93857.22;5033085;28;20208;-69
2023/04/04 07:43:16;;;;;;;1.65;0.77;;;;;;;9.19;70.35;93877.81;5023735;28;20703;-68
2023/04/04 07:45:45;;;;;;;2.67;0.95;;;;;;;9.18;69.29;93876.16;5032812;28;20677;-68
2023/04/04 07:48:11;;;;;;;1.00;1.00;;;;;;;9.16;69.24;93877.94;5032645;28;20559;-69
2023/04/04 07:50:38;;;;;;;0.60;0.60;;;;;;;9.16;68.65;93876.22;5028605;28;20203;-69
2023/04/04 07:53:05;;;;;;;0.80;0.80;;;;;;;9.13;69.00;93876.41;5029880;28;20739;-69
2023/04/04 07:55:32;;;;;;;0.70;0.70;;;;;;;8.98;69.18;93881.34;5033401;28;20203;-67
2023/04/04 07:57:58;;;;;;;0.70;0.70;;;;;;;8.77;69.59;93876.38;5031632;28;20763;-68
2023/04/04 08:00:25;;;;;;;1.13;1.10;;;;;;;8.97;69.35;93872.09;5033185;28;20258;-68
2023/04/04 08:02:55;;;;;;;1.00;1.00;;;;;;;8.90;68.47;93883.44;5026453;28;20258;-68
2023/04/04 08:05:22;;;;;;;0.93;0.93;;;;;;;8.89;68.99;93881.78;5033035;28;20258;-68
2023/04/04 08:07:49;;;;;;;1.55;1.00;;;;;;;8.83;69.29;93885.41;5032583;28;20192;-69
2023/04/04 08:10:16;;;;;;;1.05;1.00;;;;;;;8.69;69.36;93893.63;5032434;28;20289;-68
2023/04/04 08:12:44;;;;;;;1.02;1.02;;;;;;;8.66;69.57;93905.63;5021038;28;20207;-69
2023/04/04 08:15:11;;;;;;;1.13;1.13;;;;;;;8.72;69.68;93908.69;5032290;28;20208;-69
2023/04/04 08:17:38;;;;;;;1.08;1.05;;;;;;;8.56;69.71;93914.50;5022976;28;20249;-68
2023/04/04 08:20:07;;;;;;;1.13;0.80;;;;;;;8.58;70.18;93923.69;5020329;28;20228;-69
2023/04/04 08:22:34;;;;;;;0.80;0.80;;;;;;;8.67;70.28;93917.38;5025701;28;20208;-68
2023/04/04 08:25:01;;;;;;;1.10;1.10;;;;;;;8.59;69.68;93927.03;5022407;28;20236;-68
2023/04/04 08:27:27;;;;;;;2.38;1.02;;;;;;;8.49;68.48;93937.56;5028096;28;20220;-67
2023/04/04 08:29:54;;;;;;;1.00;1.00;;;;;;;8.46;68.69;93931.78;5029423;28;20262;-69
2023/04/04 08:32:21;;;;;;;2.60;1.13;;;;;;;8.54;68.86;93937.34;5027806;28;20632;-68
2023/04/04 08:34:48;;;;;;;0.80;0.80;;;;;;;8.52;68.56;93934.06;5031147;28;20661;-66
2023/04/04 08:37:17;;;;;;;0.52;0.52;;;;;;;8.62;67.95;93942.09;5031861;28;20717;-68
2023/04/04 08:39:44;;;;;;;1.15;1.13;;;;;;;8.66;67.37;93924.13;5031518;28;20753;-68
2023/04/04 08:42:11;;;;;;;1.10;0.90;;;;;;;8.76;67.62;93937.22;5026701;28;20203;-68
2023/04/04 08:44:39;;;;;;;1.35;1.25;;;;;;;8.79;67.72;93943.00;5044444;28;20210;-69
2023/04/04 08:47:09;;;;;;;1.60;1.20;;;;;;;8.88;66.51;93934.16;5030259;28;20206;-68
2023/04/04 08:49:38;;;;;;;1.00;1.00;;;;;;;8.69;66.77;93941.75;5025362;28;20215;-68
2023/04/04 08:52:06;;;;;;;4.38;0.90;;;;;;;8.63;66.68;93949.63;5009682;28;20285;-67
2023/04/04 08:54:38;;;;;;;0.75;0.75;;;;;;;8.74;66.94;93960.09;5015475;28;20203;-68
2023/04/04 08:57:05;;;;;;;0.85;0.85;;;;;;;8.61;66.70;93948.88;5011461;28;20227;-68
2023/04/04 08:59:32;;;;;;;0.90;0.90;;;;;;;8.58;67.32;93969.25;5014479;28;20199;-66
2023/04/04 09:02:14;;;;;;;0.80;0.80;;;;;;;8.80;67.57;93974.22;5013459;28;20354;-70
2023/04/04 09:04:42;;;;;;;1.50;1.40;;;;;;;8.70;66.20;93958.59;5013842;28;20207;-71
2023/04/04 09:07:10;;;;;;;1.00;1.00;;;;;;;8.70;64.84;93978.84;5013630;28;20585;-69
2023/04/04 09:09:40;;;;;;;1.15;1.15;;;;;;;8.78;64.92;93974.28;5013513;28;20210;-71
2023/04/04 09:12:07;;;;;;;2.10;1.50;;;;;;;8.76;65.06;93981.13;5012381;28;20747;-69
2023/04/04 09:14:37;;;;;;;1.48;1.38;;;;;;;8.93;65.29;93979.53;5012628;28;20298;-71
2023/04/04 09:17:04;;;;;;;1.17;1.17;;;;;;;9.00;65.40;93986.00;5009856;28;20691;-70
2023/04/04 09:19:31;;;;;;;1.55;1.35;;;;;;;9.05;65.89;93984.06;5010866;28;20315;-68
2023/04/04 09:21:58;;;;;;;1.40;1.30;;;;;;;9.02;67.20;93969.81;5012808;28;20214;-68
2023/04/04 09:24:25;;;;;;;2.45;1.63;;;;;;;9.18;65.58;93983.44;5013132;28;20289;-68
2023/04/04 09:26:53;;;;;;;0.88;0.88;;;;;;;8.78;66.47;93979.34;5013200;28;20220;-69
2023/04/04 09:29:21;;;;;;;1.05;1.05;;;;;;;8.82;65.82;93988.47;5012953;28;20772;-69
2023/04/04 09:31:48;;;;;;;1.20;1.10;;;;;;;8.79;65.09;93991.13;5012254;28;20286;-68
2023/04/04 09:34:17;;;;;;;1.10;1.10;;;;;;;8.66;65.09;93987.47;5012367;28;20326;-71
2023/04/04 09:36:44;;;;;;;0.95;0.93;;;;;;;8.65;65.19;93985.84;5012880;28;20239;-66
2023/04/04 09:39:12;;;;;;;2.83;1.08;;;;;;;8.90;65.58;93994.91;5012007;28;20207;-68
2023/04/04 09:41:40;;;;;;;1.30;1.20;;;;;;;9.03;63.98;93998.53;5012362;28;20287;-68
2023/04/04 09:44:11;;;;;;;1.75;1.65;;;;;;;9.15;63.06;93990.38;5012261;28;20266;-69
2023/04/04 09:46:38;;;;;;;1.73;1.63;;;;;;;9.29;62.98;93993.09;5013981;28;20593;-71
2023/04/04 09:49:05;;;;;;;2.22;1.20;;;;;;;9.40;62.30;93975.66;5012930;28;20303;-68
2023/04/04 09:51:36;;;;;;;1.08;1.08;;;;;;;9.36;61.43;93983.50;5011954;28;20208;-68
2023/04/04 09:54:03;;;;;;;1.10;1.10;;;;;;;9.22;61.39;93989.19;5013245;28;20282;-68
2023/04/04 09:56:29;;;;;;;1.52;1.42;;;;;;;8.92;62.27;93998.16;5013817;28;20735;-67
2023/04/04 09:58:56;;;;;;;2.33;1.67;;;;;;;8.82;64.21;94003.66;5013684;28;20897;-69
2023/04/04 10:01:25;;;;;;;5.18;1.40;;;;;;;8.85;62.66;93995.91;5013240;28;20938;-69
2023/04/04 10:03:53;;;;;;;1.08;1.08;;;;;;;8.76;63.63;93996.31;5012209;28;20203;-69
2023/04/04 10:06:21;;;;;;;1.90;1.20;;;;;;;8.67;64.04;94001.75;5013741;28;20316;-68
2023/04/04 10:08:48;;;;;;;1.23;1.23;;;;;;;8.77;62.32;94000.50;5012679;28;20721;-67
2023/04/04 10:11:28;;;;;;;1.67;1.58;;;;;;;8.95;62.81;93998.03;5013199;28;20354;-69
2023/04/04 10:13:57;;;;;;;1.30;1.20;;;;;;;9.01;62.85;93992.69;5013125;28;20211;-68
2023/04/04 10:16:25;;;;;;;1.20;1.20;;;;;;;8.96;62.36;94009.81;5013725;28;20295;-67
2023/04/04 10:18:52;;;;;;;1.90;1.17;;;;;;;8.88;61.90;94027.09;5013504;28;21404;-66
2023/04/04 10:21:19;;;;;;;1.50;1.50;;;;;;;8.91;61.79;94021.88;5011969;28;20328;-67
2023/04/04 10:23:47;;;;;;;1.27;1.27;;;;;;;8.90;62.07;94010.94;5013333;28;20291;-66
2023/04/04 10:26:13;;;;;;;1.20;1.20;;;;;;;9.04;62.70;94025.50;5012914;28;20280;-69
2023/04/04 10:28:40;;;;;;;1.10;1.10;;;;;;;9.09;62.42;94032.03;5012620;28;20727;-66
2023/04/04 10:31:16;;;;;;;1.30;0.93;;;;;;;9.00;62.04;94016.41;5012620;28;20779;-69
2023/04/04 10:33:50;;;;;;;1.45;1.35;;;;;;;9.05;61.67;94039.81;5012506;28;20671;-66
2023/04/04 10:36:22;;;;;;;1.70;1.60;;;;;;;9.23;61.69;94041.53;5012077;28;20270;-70
2023/04/04 10:38:57;;;;;;;1.65;1.60;;;;;;;9.11;61.99;94037.84;5012980;28;20788;-67
2023/04/04 10:41:27;;;;;;;2.00;1.90;;;;;;;9.07;61.79;94048.19;5012087;28;20334;-67
2023/04/04 10:44:00;;;;;;;1.80;1.70;;;;;;;9.19;62.08;94045.91;5012811;28;20606;-67
2023/04/04 10:46:30;;;;;;;2.78;2.58;;;;;;;9.31;62.88;94051.34;5012802;28;20212;-67
2023/04/04 10:49:00;;;;;;;1.67;1.58;;;;;;;9.47;61.55;94042.97;5013549;28;20199;-67
2023/04/04 10:51:27;;;;;;;2.22;1.20;;;;;;;9.36;62.23;94035.03;5012135;28;20250;-67
2023/04/04 10:53:54;;;;;;;2.30;1.75;;;;;;;9.34;61.78;94046.97;5013250;28;20314;-66
2023/04/04 10:56:22;;;;;;;1.73;1.65;;;;;;;9.26;62.69;94068.47;5013008;28;20664;-67
2023/04/04 10:58:49;;;;;;;1.45;1.45;;;;;;;9.31;62.98;94064.84;5016911;28;20730;-67
2023/04/04 11:01:19;;;;;;;1.98;1.88;;;;;;;9.13;62.44;94060.59;5016264;28;20289;-68
2023/04/04 11:04:22;;;;;;;2.85;1.55;;;;;;;9.02;63.81;94066.13;5017379;28;20290;-67
2023/04/04 11:07:11;;;;;;;3.40;2.10;;;;;;;9.16;63.83;94073.09;5015840;28;20195;-68
2023/04/04 11:09:52;;;;;;;1.23;1.23;;;;;;;9.14;62.26;94062.25;5016124;28;20227;-66
2023/04/04 11:12:27;;;;;;;1.80;1.70;;;;;;;8.97;63.23;94072.28;5016650;28;20214;-67
2023/04/04 11:15:07;;;;;;;3.50;1.80;;;;;;;8.90;63.96;94064.13;5016803;28;20720;-67
2023/04/04 11:17:58;;;;;;;1.60;1.50;;;;;;;8.88;64.11;94049.88;5016446;28;20223;-70
2023/04/04 11:20:30;;;;;;;1.45;1.35;;;;;;;8.88;63.69;94075.22;5015657;28;20674;-67
2023/04/04 11:23:09;;;;;;;1.75;1.65;;;;;;;8.88;64.40;94076.03;5017130;28;20350;-68
2023/04/04 11:25:38;;;;;;;2.20;1.70;;;;;;;8.86;64.15;94076.09;5015974;28;20204;-68
2023/04/04 11:28:13;;;;;;;1.77;1.67;;;;;;;8.91;64.09;94082.69;5016305;28;20319;-67
2023/04/04 11:30:50;;;;;;;2.80;2.60;;;;;;;8.97;63.95;94082.41;5016624;28;20203;-68
2023/04/04 11:33:27;;;;;;;2.40;2.20;;;;;;;8.81;64.12;94078.00;5016110;28;21027;-67
2023/04/04 11:35:59;;;;;;;1.83;1.73;;;;;;;8.76;63.95;94095.09;5016316;28;20243;-66
2023/04/04 11:38:28;;;;;;;1.90;1.80;;;;;;;8.66;64.84;94091.28;5015202;28;20715;-67
2023/04/04 11:40:55;;;;;;;1.70;1.60;;;;;;;8.74;65.15;94090.97;5016749;28;20291;-68
2023/04/04 11:43:22;;;;;;;1.58;1.48;;;;;;;8.78;63.31;94092.50;5015998;28;20223;-69
2023/04/04 11:45:49;;;;;;;2.50;2.13;;;;;;;8.64;64.37;94090.56;5015869;28;20708;-68
2023/04/04 11:48:18;;;;;;;5.38;2.13;;;;;;;8.57;64.10;94084.09;5015392;28;20203;-67